createdAt,value
2022-11-06T00:01:13.191Z,50.70
2022-11-06T00:03:40.824Z,51.14
2022-11-06T00:06:09.515Z,50.45
2022-11-06T00:08:39.438Z,50.20
2022-11-06T00:11:15.295Z,50.54
2022-11-06T00:13:43.510Z,49.77
2022-11-06T00:16:13.274Z,49.19
2022-11-06T00:18:41.025Z,48.63
2022-11-06T00:21:10.516Z,48.91
2022-11-06T00:23:39.003Z,48.71
2022-11-06T00:26:11.143Z,48.93
2022-11-06T00:28:39.170Z,49.09
2022-11-06T00:31:12.404Z,48.64
2022-11-06T00:33:39.517Z,48.88
2022-11-06T00:36:09.259Z,49.32
2022-11-06T00:38:36.387Z,48.79
2022-11-06T00:41:08.841Z,49.33
2022-11-06T00:43:36.376Z,48.79
2022-11-06T00:46:03.553Z,49.16
2022-11-06T00:48:30.425Z,49.37
2022-11-06T00:51:03.505Z,48.83
2022-11-06T00:53:30.612Z,48.12
2022-11-06T00:56:08.454Z,48.73
2022-11-06T00:58:35.758Z,48.78
2022-11-06T01:01:22.653Z,49.00
2022-11-06T01:03:55.583Z,48.32
2022-11-06T01:06:25.178Z,48.46
2022-11-06T01:08:52.697Z,48.14
2022-11-06T01:12:11.129Z,48.69
2022-11-06T01:14:28.366Z,48.33
2022-11-06T01:16:55.184Z,48.70
2022-11-06T01:19:23.177Z,48.59
2022-11-06T01:21:52.545Z,48.07
2022-11-06T01:24:25.708Z,48.36
2022-11-06T01:27:24.341Z,48.33
2022-11-06T01:29:40.195Z,47.96
2022-11-06T01:32:07.310Z,47.70
2022-11-06T01:34:34.311Z,47.58
2022-11-06T01:37:01.363Z,47.96
2022-11-06T01:39:28.531Z,47.70
2022-11-06T01:41:55.755Z,47.65
2022-11-06T01:44:31.972Z,48.07
2022-11-06T01:47:00.415Z,47.64
2022-11-06T01:49:32.777Z,47.80
2022-11-06T01:52:05.092Z,47.67
2022-11-06T01:54:35.651Z,47.86
2022-11-06T01:57:04.558Z,48.15
2022-11-06T01:59:35.207Z,47.80
2022-11-06T02:02:02.385Z,47.33
2022-11-06T02:04:34.564Z,47.49
2022-11-06T02:07:02.480Z,48.03
2022-11-06T02:09:31.356Z,47.55
2022-11-06T02:12:05.743Z,47.75
2022-11-06T02:15:08.076Z,47.55
2022-11-06T02:18:01.140Z,47.99
2022-11-06T02:21:09.355Z,47.98
2022-11-06T02:24:14.455Z,47.87
2022-11-06T02:27:00.263Z,47.55
2022-11-06T02:29:55.648Z,47.30
2022-11-06T02:32:40.570Z,47.35
2022-11-06T02:35:43.638Z,47.14
2022-11-06T02:38:20.596Z,47.29
2022-11-06T02:40:53.978Z,47.29
2022-11-06T02:43:26.020Z,47.44
2022-11-06T02:46:05.383Z,47.37
2022-11-06T02:48:38.789Z,46.71
2022-11-06T02:51:09.831Z,46.58
2022-11-06T02:53:40.693Z,47.03
2022-11-06T02:56:14.313Z,47.32
2022-11-06T02:58:57.987Z,47.27
2022-11-06T03:01:41.902Z,46.69
2022-11-06T03:04:35.395Z,47.36
2022-11-06T03:07:12.211Z,47.69
2022-11-06T03:09:39.308Z,47.55
2022-11-06T03:12:32.948Z,47.44
2022-11-06T03:15:39.163Z,47.91
2022-11-06T03:18:29.501Z,47.88
2022-11-06T03:21:11.070Z,47.20
2022-11-06T03:23:59.076Z,46.84
2022-11-06T03:26:37.432Z,46.75
2022-11-06T03:29:14.720Z,46.99
2022-11-06T03:31:54.664Z,47.09
2022-11-06T03:34:49.488Z,47.01
2022-11-06T03:37:26.696Z,46.86
2022-11-06T03:39:59.094Z,46.53
2022-11-06T03:42:29.781Z,46.35
2022-11-06T03:45:19.987Z,46.36
2022-11-06T03:47:54.860Z,47.30
2022-11-06T03:50:39.927Z,48.09
2022-11-06T03:53:15.444Z,47.41
2022-11-06T03:55:48.453Z,47.15
2022-11-06T03:58:21.741Z,48.04
2022-11-06T04:00:50.953Z,47.46
2022-11-06T04:03:27.081Z,47.98
2022-11-06T04:06:12.603Z,47.82
2022-11-06T04:08:40.543Z,46.91
2022-11-06T04:11:10.711Z,47.24
2022-11-06T04:13:41.321Z,47.10
2022-11-06T04:16:09.838Z,47.04
2022-11-06T04:18:37.364Z,47.12
2022-11-06T04:21:25.224Z,47.57
2022-11-06T04:24:19.636Z,47.10
2022-11-06T04:27:21.350Z,47.23
2022-11-06T04:30:04.271Z,47.18
2022-11-06T04:33:05.429Z,47.24
2022-11-06T04:36:03.031Z,47.53
2022-11-06T04:38:55.131Z,47.85
2022-11-06T04:41:38.706Z,47.95
2022-11-06T04:44:27.023Z,48.73
2022-11-06T04:46:59.225Z,47.54
2022-11-06T04:49:31.217Z,47.71
2022-11-06T04:51:59.375Z,47.23
2022-11-06T04:54:26.719Z,47.10
2022-11-06T04:56:58.794Z,48.26
2022-11-06T04:59:25.677Z,48.79
2022-11-06T05:01:53.606Z,48.91
2022-11-06T05:04:20.641Z,49.16
2022-11-06T05:06:47.453Z,50.11
2022-11-06T05:09:14.349Z,50.08
2022-11-06T05:11:41.190Z,50.60
2022-11-06T05:14:09.534Z,51.00
2022-11-06T05:16:36.511Z,51.35
2022-11-06T05:19:04.097Z,52.11
2022-11-06T05:21:31.146Z,51.88
2022-11-06T05:23:58.072Z,52.25
2022-11-06T05:26:25.113Z,52.94
2022-11-06T05:28:52.080Z,53.15
2022-11-06T05:31:18.936Z,52.81
2022-11-06T05:33:45.937Z,53.13
2022-11-06T05:36:12.797Z,53.07
2022-11-06T05:38:39.644Z,53.75
2022-11-06T05:41:06.578Z,53.54
2022-11-06T05:43:33.682Z,53.33
2022-11-06T05:46:00.744Z,53.50
2022-11-06T05:48:29.074Z,53.80
2022-11-06T05:51:07.414Z,53.59
2022-11-06T05:53:37.027Z,53.04
2022-11-06T05:56:05.300Z,52.99
2022-11-06T05:58:33.308Z,52.82
2022-11-06T06:01:00.718Z,52.38
2022-11-06T06:03:28.494Z,52.14
2022-11-06T06:05:55.776Z,52.03
2022-11-06T06:08:25.835Z,53.29
2022-11-06T06:10:53.008Z,52.97
2022-11-06T06:13:20.160Z,53.10
2022-11-06T06:15:46.983Z,53.05
2022-11-06T06:18:14.298Z,53.49
2022-11-06T06:20:41.438Z,53.82
2022-11-06T06:23:09.822Z,53.99
2022-11-06T06:25:36.729Z,53.95
2022-11-06T06:28:03.617Z,54.38
2022-11-06T06:30:30.493Z,54.50
2022-11-06T06:32:57.475Z,54.91
2022-11-06T06:35:24.414Z,55.24
2022-11-06T06:37:53.521Z,55.28
2022-11-06T06:40:23.661Z,55.35
2022-11-06T06:42:51.061Z,55.46
2022-11-06T06:45:17.883Z,55.16
2022-11-06T06:47:44.743Z,55.26
2022-11-06T06:50:14.795Z,55.02
2022-11-06T06:52:41.900Z,55.73
2022-11-06T06:55:09.358Z,55.81
2022-11-06T06:57:36.668Z,55.74
2022-11-06T07:00:04.689Z,55.58
2022-11-06T07:02:31.853Z,55.57
2022-11-06T07:04:58.786Z,55.54
2022-11-06T07:07:26.027Z,55.55
2022-11-06T07:09:53.191Z,55.67
2022-11-06T07:12:19.990Z,55.58
2022-11-06T07:14:46.844Z,55.63
2022-11-06T07:17:13.688Z,55.69
2022-11-06T07:19:40.569Z,55.51
2022-11-06T07:22:08.085Z,55.07
2022-11-06T07:24:34.884Z,54.23
2022-11-06T07:27:01.726Z,55.31
2022-11-06T07:29:29.208Z,55.25
2022-11-06T07:31:56.003Z,54.92
2022-11-06T07:34:22.912Z,55.00
2022-11-06T07:36:49.831Z,55.77
2022-11-06T07:39:16.738Z,55.42
2022-11-06T07:41:43.626Z,55.77
2022-11-06T07:44:11.218Z,55.80
2022-11-06T07:46:38.000Z,55.70
2022-11-06T07:49:04.794Z,56.33
2022-11-06T07:51:32.223Z,55.81
2022-11-06T07:53:59.411Z,55.20
2022-11-06T07:56:26.209Z,55.74
2022-11-06T07:58:55.856Z,55.61
2022-11-06T08:01:23.863Z,55.52
2022-11-06T08:03:50.967Z,55.72
2022-11-06T08:06:17.846Z,54.97
2022-11-06T08:08:45.025Z,55.37
2022-11-06T08:11:12.743Z,55.36
2022-11-06T08:13:40.274Z,55.78
2022-11-06T08:16:10.192Z,56.10
2022-11-06T08:18:38.076Z,56.10
2022-11-06T08:21:07.071Z,56.32
2022-11-06T08:23:35.787Z,56.16
2022-11-06T08:26:05.558Z,56.37
2022-11-06T08:28:32.652Z,56.12
2022-11-06T08:31:03.778Z,56.35
2022-11-06T08:33:30.909Z,56.84
2022-11-06T08:36:05.717Z,56.36
2022-11-06T08:38:32.971Z,56.16
2022-11-06T08:41:11.892Z,56.46
2022-11-06T08:43:39.781Z,56.28
2022-11-06T08:46:08.447Z,56.21
2022-11-06T08:48:35.467Z,55.92
2022-11-06T08:51:02.569Z,55.90
2022-11-06T08:53:29.512Z,56.06
2022-11-06T08:55:56.484Z,56.30
2022-11-06T08:58:26.411Z,55.92
2022-11-06T09:00:53.454Z,56.09
2022-11-06T09:03:20.424Z,56.17
2022-11-06T09:05:47.713Z,56.42
2022-11-06T09:08:15.213Z,55.73
2022-11-06T09:10:47.112Z,55.53
2022-11-06T09:13:15.181Z,55.19
2022-11-06T09:15:44.009Z,55.40
2022-11-06T09:18:12.013Z,55.17
2022-11-06T09:20:38.952Z,55.70
2022-11-06T09:23:08.192Z,54.90
2022-11-06T09:25:35.411Z,54.48
2022-11-06T09:28:02.460Z,53.68
2022-11-06T09:30:31.290Z,53.23
2022-11-06T09:33:01.553Z,53.30
2022-11-06T09:35:31.207Z,52.64
2022-11-06T09:38:05.923Z,52.86
2022-11-06T09:40:49.782Z,53.34
2022-11-06T09:44:08.960Z,53.75
2022-11-06T09:46:47.508Z,53.54
2022-11-06T09:49:17.536Z,53.40
2022-11-06T09:52:01.888Z,53.59
2022-11-06T09:54:40.229Z,53.48
2022-11-06T09:57:22.443Z,53.26
2022-11-06T09:59:51.315Z,53.57
2022-11-06T10:02:49.540Z,53.92
2022-11-06T10:05:29.133Z,53.42
2022-11-06T10:08:00.102Z,53.36
2022-11-06T10:11:08.710Z,53.56
2022-11-06T10:14:03.122Z,53.29
2022-11-06T10:16:48.442Z,52.96
2022-11-06T10:19:30.550Z,52.28
2022-11-06T10:22:16.083Z,52.86
2022-11-06T10:25:01.359Z,52.76
2022-11-06T10:27:43.019Z,52.33
2022-11-06T10:30:15.823Z,52.57
2022-11-06T10:33:00.953Z,52.61
2022-11-06T10:35:40.292Z,52.52
2022-11-06T10:38:44.587Z,52.79
2022-11-06T10:41:20.120Z,52.12
2022-11-06T10:43:57.230Z,52.58
2022-11-06T10:46:34.071Z,52.47
2022-11-06T10:49:05.084Z,52.64
2022-11-06T10:51:43.712Z,52.79
2022-11-06T10:54:38.638Z,53.39
2022-11-06T10:57:16.625Z,52.70
2022-11-06T10:59:43.780Z,52.35
2022-11-06T11:02:31.856Z,52.39
2022-11-06T11:04:59.266Z,52.14
2022-11-06T11:07:32.486Z,52.03
2022-11-06T11:09:59.581Z,52.21
2022-11-06T11:12:31.490Z,52.15
2022-11-06T11:15:32.823Z,51.73
2022-11-06T11:18:12.081Z,51.06
2022-11-06T11:20:42.036Z,50.74
2022-11-06T11:23:25.246Z,51.02
2022-11-06T11:25:55.083Z,50.09
2022-11-06T11:28:35.894Z,49.70
2022-11-06T11:31:06.097Z,48.94
2022-11-06T11:33:33.995Z,48.29
2022-11-06T11:36:02.825Z,48.06
2022-11-06T11:38:30.258Z,48.48
2022-11-06T11:41:24.048Z,49.23
2022-11-06T11:44:18.208Z,48.90
2022-11-06T11:46:53.641Z,48.54
2022-11-06T11:49:34.550Z,48.46
2022-11-06T11:52:05.079Z,48.82
2022-11-06T11:54:35.181Z,48.02
2022-11-06T11:57:08.302Z,48.61
2022-11-06T11:59:48.377Z,48.76
2022-11-06T12:02:31.644Z,48.55
2022-11-06T12:05:02.789Z,49.45
2022-11-06T12:07:52.273Z,49.10
2022-11-06T12:10:35.972Z,48.74
2022-11-06T12:13:24.281Z,48.70
2022-11-06T12:15:57.670Z,48.49
2022-11-06T12:18:43.960Z,49.61
2022-11-06T12:21:46.142Z,49.39
2022-11-06T12:24:20.724Z,49.40
2022-11-06T12:26:59.432Z,48.78
2022-11-06T12:29:34.749Z,48.59
2022-11-06T12:32:20.209Z,49.07
2022-11-06T12:34:49.892Z,49.21
2022-11-06T12:38:01.498Z,49.69
2022-11-06T12:40:51.272Z,49.72
2022-11-06T12:43:25.271Z,49.36
2022-11-06T12:46:22.135Z,50.08
2022-11-06T12:49:17.605Z,49.61
2022-11-06T12:52:06.082Z,49.89
2022-11-06T12:54:39.202Z,48.58
2022-11-06T12:57:34.627Z,49.90
2022-11-06T13:00:08.249Z,49.32
2022-11-06T13:03:12.690Z,49.80
2022-11-06T13:06:01.099Z,48.44
2022-11-06T13:08:36.052Z,48.55
2022-11-06T13:11:33.540Z,49.52
2022-11-06T13:14:14.703Z,49.02
2022-11-06T13:16:50.693Z,48.80
2022-11-06T13:19:39.488Z,49.28
2022-11-06T13:22:15.497Z,49.13
2022-11-06T13:25:07.309Z,49.55
2022-11-06T13:27:51.650Z,49.39
2022-11-06T13:30:21.423Z,49.35
2022-11-06T13:33:12.642Z,49.34
2022-11-06T13:35:42.662Z,49.20
2022-11-06T13:38:17.163Z,49.66
2022-11-06T13:40:48.664Z,49.21
2022-11-06T13:43:22.870Z,49.37
2022-11-06T13:46:17.733Z,49.22
2022-11-06T13:49:06.916Z,49.20
2022-11-06T13:51:43.360Z,48.67
2022-11-06T13:54:41.274Z,48.76
2022-11-06T13:57:21.797Z,49.12
2022-11-06T13:59:57.357Z,49.18
2022-11-06T14:02:54.284Z,49.71
2022-11-06T14:05:53.669Z,49.21
2022-11-06T14:08:50.587Z,49.24
2022-11-06T14:11:20.646Z,49.35
2022-11-06T14:14:12.384Z,49.54
2022-11-06T14:16:43.239Z,49.13
2022-11-06T14:19:23.604Z,49.24
2022-11-06T14:22:14.718Z,49.98
2022-11-06T14:24:43.648Z,49.55
2022-11-06T14:27:12.029Z,49.52
2022-11-06T14:29:39.193Z,49.88
2022-11-06T14:32:21.049Z,48.67
2022-11-06T14:34:48.693Z,48.55
2022-11-06T14:37:18.308Z,49.64
2022-11-06T14:39:54.453Z,49.64
2022-11-06T14:42:30.863Z,49.47
2022-11-06T14:45:15.668Z,49.46
2022-11-06T14:47:54.688Z,49.47
2022-11-06T14:50:40.955Z,48.98
2022-11-06T14:53:24.055Z,48.44
2022-11-06T14:56:11.504Z,48.31
2022-11-06T14:58:47.771Z,48.41
2022-11-06T15:01:16.985Z,48.61
2022-11-06T15:03:51.138Z,48.43
2022-11-06T15:06:18.177Z,47.81
2022-11-06T15:08:48.258Z,48.12
2022-11-06T15:11:30.588Z,48.94
2022-11-06T15:14:06.175Z,48.61
2022-11-06T15:16:46.942Z,48.79
2022-11-06T15:19:22.574Z,48.33
2022-11-06T15:21:53.415Z,48.57
2022-11-06T15:24:35.937Z,48.43
2022-11-06T15:27:12.714Z,48.96
2022-11-06T15:29:42.746Z,48.54
2022-11-06T15:32:15.797Z,48.42
2022-11-06T15:34:50.750Z,48.03
2022-11-06T15:37:23.399Z,48.88
2022-11-06T15:39:59.203Z,48.78
2022-11-06T15:42:31.429Z,48.47
2022-11-06T15:45:09.064Z,48.78
2022-11-06T15:47:36.327Z,48.18
2022-11-06T15:50:23.966Z,48.89
2022-11-06T15:52:51.508Z,49.03
2022-11-06T15:55:33.554Z,49.56
2022-11-06T15:58:33.198Z,48.86
2022-11-06T16:01:02.050Z,49.09
2022-11-06T16:03:32.585Z,49.04
2022-11-06T16:06:04.296Z,48.78
2022-11-06T16:08:33.002Z,48.59
2022-11-06T16:11:01.872Z,49.84
2022-11-06T16:13:29.765Z,48.79
2022-11-06T16:16:01.692Z,49.43
2022-11-06T16:18:47.391Z,49.00
2022-11-06T16:21:22.790Z,48.53
2022-11-06T16:23:55.108Z,48.98
2022-11-06T16:26:33.623Z,48.74
2022-11-06T16:29:00.940Z,48.70
2022-11-06T16:31:30.706Z,48.82
2022-11-06T16:34:03.701Z,48.97
2022-11-06T16:36:49.463Z,49.50
2022-11-06T16:39:40.202Z,49.72
2022-11-06T16:42:12.504Z,49.92
2022-11-06T16:44:39.400Z,49.19
2022-11-06T16:47:20.931Z,49.04
2022-11-06T16:49:53.885Z,49.07
2022-11-06T16:52:33.531Z,49.36
2022-11-06T16:55:16.612Z,49.29
2022-11-06T16:57:46.779Z,48.98
2022-11-06T17:00:20.370Z,49.81
2022-11-06T17:02:50.494Z,49.49
2022-11-06T17:05:22.979Z,50.23
2022-11-06T17:08:22.600Z,50.42
2022-11-06T17:11:12.861Z,50.47
2022-11-06T17:13:46.262Z,49.82
2022-11-06T17:16:19.931Z,49.37
2022-11-06T17:18:47.560Z,49.71
2022-11-06T17:21:15.634Z,49.73
2022-11-06T17:23:43.582Z,49.82
2022-11-06T17:26:30.517Z,50.21
2022-11-06T17:28:59.059Z,50.12
2022-11-06T17:31:27.132Z,50.03
2022-11-06T17:33:54.480Z,50.12
2022-11-06T17:36:25.789Z,50.04
2022-11-06T17:38:56.919Z,49.59
2022-11-06T17:41:25.248Z,50.37
2022-11-06T17:43:52.354Z,50.21
2022-11-06T17:46:19.370Z,51.00
2022-11-06T17:48:46.445Z,50.41
2022-11-06T17:51:13.862Z,50.55
2022-11-06T17:53:40.690Z,50.20
2022-11-06T17:56:07.999Z,50.38
2022-11-06T17:58:35.973Z,50.59
2022-11-06T18:01:10.777Z,50.41
2022-11-06T18:03:43.956Z,51.08
2022-11-06T18:06:14.149Z,50.34
2022-11-06T18:08:41.577Z,50.81
2022-11-06T18:11:10.167Z,51.00
2022-11-06T18:13:37.830Z,50.74
2022-11-06T18:16:16.479Z,51.24
2022-11-06T18:18:43.508Z,51.83
2022-11-06T18:21:10.683Z,51.22
2022-11-06T18:23:38.191Z,51.36
2022-11-06T18:26:05.698Z,51.42
2022-11-06T18:28:32.872Z,51.23
2022-11-06T18:31:00.519Z,51.08
2022-11-06T18:33:29.024Z,51.15
2022-11-06T18:36:05.201Z,51.29
2022-11-06T18:38:32.963Z,51.63
2022-11-06T18:41:07.211Z,51.91
2022-11-06T18:43:34.434Z,51.38
2022-11-06T18:46:09.644Z,51.39
2022-11-06T18:48:37.317Z,50.83
2022-11-06T18:51:32.709Z,51.46
2022-11-06T18:54:05.489Z,51.09
2022-11-06T18:56:33.412Z,52.13
2022-11-06T18:59:00.292Z,52.03
2022-11-06T19:01:28.270Z,51.86
2022-11-06T19:03:56.580Z,52.92
2022-11-06T19:06:23.536Z,52.04
2022-11-06T19:08:50.437Z,52.62
2022-11-06T19:11:18.710Z,51.53
2022-11-06T19:13:48.197Z,52.54
2022-11-06T19:16:17.741Z,52.90
2022-11-06T19:18:46.977Z,52.73
2022-11-06T19:21:14.469Z,52.87
2022-11-06T19:23:46.711Z,52.30
2022-11-06T19:26:30.419Z,52.66
2022-11-06T19:29:01.571Z,52.00
2022-11-06T19:31:29.937Z,53.03
2022-11-06T19:33:58.639Z,52.05
2022-11-06T19:36:26.069Z,52.60
2022-11-06T19:38:53.855Z,52.19
2022-11-06T19:41:21.079Z,52.20
2022-11-06T19:43:48.091Z,52.59
2022-11-06T19:46:18.275Z,53.04
2022-11-06T19:48:49.691Z,52.68
2022-11-06T19:51:16.628Z,53.29
2022-11-06T19:53:43.693Z,52.82
2022-11-06T19:56:12.653Z,52.53
2022-11-06T19:58:39.695Z,52.89
2022-11-06T20:01:07.950Z,52.95
2022-11-06T20:03:35.687Z,52.61
2022-11-06T20:06:07.556Z,53.42
2022-11-06T20:08:36.300Z,53.26
2022-11-06T20:11:11.357Z,53.31
2022-11-06T20:13:39.213Z,53.46
2022-11-06T20:16:08.970Z,53.44
2022-11-06T20:18:36.631Z,53.11
2022-11-06T20:21:10.960Z,53.31
2022-11-06T20:23:38.586Z,53.19
2022-11-06T20:26:07.069Z,53.95
2022-11-06T20:28:35.173Z,53.92
2022-11-06T20:31:10.282Z,54.27
2022-11-06T20:33:38.260Z,53.74
2022-11-06T20:36:16.609Z,54.13
2022-11-06T20:38:43.561Z,53.80
2022-11-06T20:41:11.109Z,53.83
2022-11-06T20:43:38.228Z,53.61
2022-11-06T20:46:05.861Z,53.54
2022-11-06T20:48:33.435Z,53.21
2022-11-06T20:51:06.469Z,53.46
2022-11-06T20:53:34.205Z,53.91
2022-11-06T20:56:03.846Z,53.78
2022-11-06T20:58:31.152Z,54.15
2022-11-06T21:01:03.309Z,54.47
2022-11-06T21:03:30.546Z,54.38
2022-11-06T21:05:57.954Z,54.74
2022-11-06T21:08:25.627Z,54.71
2022-11-06T21:11:03.431Z,54.22
2022-11-06T21:13:34.478Z,54.92
2022-11-06T21:16:04.853Z,55.40
2022-11-06T21:18:35.229Z,55.52
2022-11-06T21:21:07.342Z,55.40
2022-11-06T21:23:35.401Z,55.33
2022-11-06T21:26:07.408Z,56.16
2022-11-06T21:28:36.590Z,55.78
2022-11-06T21:31:04.108Z,55.44
2022-11-06T21:33:31.060Z,54.82
2022-11-06T21:36:08.788Z,55.63
2022-11-06T21:38:35.860Z,55.38
2022-11-06T21:41:07.689Z,55.70
2022-11-06T21:43:35.457Z,55.13
2022-11-06T21:46:08.122Z,56.13
2022-11-06T21:48:51.962Z,55.85
2022-11-06T21:51:22.425Z,55.60
2022-11-06T21:53:50.268Z,55.84
2022-11-06T21:56:22.135Z,55.90
2022-11-06T21:58:53.363Z,55.93
2022-11-06T22:01:21.099Z,55.60
2022-11-06T22:03:48.217Z,56.26
2022-11-06T22:06:18.789Z,55.25
2022-11-06T22:08:47.225Z,55.29
2022-11-06T22:11:21.476Z,56.03
2022-11-06T22:13:50.773Z,55.44
2022-11-06T22:16:29.489Z,55.58
2022-11-06T22:18:57.841Z,55.68
2022-11-06T22:21:27.563Z,56.34
2022-11-06T22:23:55.128Z,55.89
2022-11-06T22:26:28.451Z,56.24
2022-11-06T22:28:57.835Z,55.85
2022-11-06T22:31:25.688Z,56.03
2022-11-06T22:33:54.078Z,55.77
2022-11-06T22:36:22.585Z,56.28
2022-11-06T22:38:50.396Z,55.90
2022-11-06T22:41:20.545Z,56.09
2022-11-06T22:43:47.463Z,55.99
2022-11-06T22:46:20.286Z,56.21
2022-11-06T22:48:48.312Z,55.91
2022-11-06T22:51:21.043Z,56.47
2022-11-06T22:53:48.577Z,56.44
2022-11-06T22:56:15.396Z,56.02
2022-11-06T22:58:43.331Z,56.21
2022-11-06T23:01:11.329Z,55.72
2022-11-06T23:03:38.815Z,56.47
2022-11-06T23:06:09.078Z,55.92
2022-11-06T23:08:39.741Z,55.61
2022-11-06T23:11:12.018Z,56.09
2022-11-06T23:13:40.198Z,55.89
2022-11-06T23:16:13.850Z,56.25
2022-11-06T23:18:41.132Z,56.68
2022-11-06T23:21:16.213Z,56.68
2022-11-06T23:23:44.940Z,56.20
2022-11-06T23:26:17.892Z,55.83
2022-11-06T23:28:45.678Z,55.84
2022-11-06T23:31:14.477Z,55.93
2022-11-06T23:33:42.825Z,55.98
2022-11-06T23:36:11.990Z,56.84
2022-11-06T23:38:39.086Z,56.58
2022-11-06T23:41:14.003Z,57.68
2022-11-06T23:43:40.934Z,57.75
2022-11-06T23:46:07.766Z,56.83
2022-11-06T23:48:34.765Z,57.37
2022-11-06T23:51:01.584Z,57.50
2022-11-06T23:53:28.450Z,57.69
2022-11-06T23:55:55.318Z,56.72
2022-11-06T23:58:22.202Z,56.55
